»·PEaware :: DAL1105 KLAX-KLAS

DAL1105 :: KLAX-KLAS

FLIGHT INFORMATION

Flight Status: Arrived
Operator:
Delta Air Lines
More flights by this operator :: More flights under this callsign
Pilot: Christian H. (16685)
Aircraft: BOEING 737-800
(B738)
More flights by this aircraft type
Origin: KLAX Los Angeles Intl
United States
Destination: KLAS McCarran Intl
United States
More flights between these airports :: More routes between these airports
Route: +OSHNN8 MISEN KEPEC6
File this flight plan on PilotEdge
Remarks:
Altitude:
(Current/Filed)
27,000ft
Speed:
(Current/Filed)
503kts
Departed: 07-Jun-18 04:51 PM
Arrived: 07-Jun-18 05:52 PM
Distance/Time
Traveled:
205nm/1:01
Distance/Time
To Go:
Arrived

Flight Plot

Page will automatically refresh every two minutes.

Flight plan parsing failed; only flown route is shown


Map Options




Map Legend


Flown Route
Filed Route
Departure Airport
Arrival Airport
Navaid (VOR, NDB)
Fix

Horizontal Profiles

Position Reports

Time Latitude Longitude Heading Altitude Ground
Speed
07-Jun-18 16:25 33.941038 -118.405042 85 121ft 0kts
07-Jun-18 16:26 33.941038 -118.405042 85 121ft 0kts
07-Jun-18 16:27 33.941038 -118.405042 85 121ft 0kts
07-Jun-18 16:28 33.941038 -118.405042 85 121ft 0kts
07-Jun-18 16:29 33.941038 -118.405042 85 121ft 0kts
07-Jun-18 16:30 33.941038 -118.405042 85 121ft 0kts
07-Jun-18 16:31 33.941038 -118.405042 85 121ft 0kts
07-Jun-18 16:32 33.941038 -118.405043 85 121ft 0kts
07-Jun-18 16:33 33.941063 -118.405383 116 121ft 2kts
07-Jun-18 16:34 33.941377 -118.405673 173 121ft 0kts
07-Jun-18 16:35 33.940776 -118.405585 174 122ft 0kts
07-Jun-18 16:36 33.940776 -118.405585 174 122ft 0kts
07-Jun-18 16:37 33.940776 -118.405585 174 122ft 0kts
07-Jun-18 16:38 33.940776 -118.405585 174 122ft 0kts
07-Jun-18 16:39 33.940776 -118.405585 173 122ft 0kts
07-Jun-18 16:40 33.940776 -118.405585 173 122ft 0kts
07-Jun-18 16:41 33.940725 -118.405578 173 122ft 1kts
07-Jun-18 16:42 33.939286 -118.405369 172 122ft 11kts
07-Jun-18 16:43 33.938418 -118.403342 80 119ft 17kts
07-Jun-18 16:44 33.938850 -118.399331 82 115ft 22kts
07-Jun-18 16:45 33.939390 -118.393961 84 107ft 29kts
07-Jun-18 16:46 33.940085 -118.387222 82 103ft 29kts
07-Jun-18 16:47 33.940691 -118.381260 84 100ft 19kts
07-Jun-18 16:48 33.940683 -118.380732 104 99ft 0kts
07-Jun-18 16:49 33.940683 -118.380729 104 99ft 0kts
07-Jun-18 16:50 33.939583 -118.382633 263 99ft 23kts
07-Jun-18 16:51 33.935903 -118.416754 262 1202ft 200kts
07-Jun-18 16:52 33.918247 -118.483216 233 4212ft 251kts
07-Jun-18 16:53 33.872989 -118.546467 222 4965ft 262kts
07-Jun-18 16:54 33.813154 -118.552825 171 7727ft 280kts
07-Jun-18 16:55 33.739519 -118.533040 169 10963ft 316kts
07-Jun-18 16:56 33.680858 -118.465385 112 12988ft 342kts
07-Jun-18 16:57 33.650226 -118.363422 111 15513ft 358kts
07-Jun-18 16:58 33.642849 -118.249829 90 16945ft 372kts
07-Jun-18 16:59 33.678474 -118.155970 41 16930ft 370kts
07-Jun-18 17:00 33.741577 -118.095390 35 17831ft 380kts
07-Jun-18 17:01 33.803049 -118.039558 34 20191ft 390kts
07-Jun-18 17:02 33.866385 -117.982243 34 22227ft 403kts
07-Jun-18 17:03 33.939324 -117.915943 34 22969ft 409kts
07-Jun-18 17:04 34.012099 -117.849177 34 22972ft 408kts
07-Jun-18 17:05 34.085850 -117.781344 36 22998ft 410kts
07-Jun-18 17:06 34.145630 -117.697803 50 23082ft 422kts
07-Jun-18 17:07 34.211538 -117.598642 49 25629ft 428kts
07-Jun-18 17:08 34.281244 -117.494214 48 27004ft 445kts
07-Jun-18 17:09 34.352191 -117.387898 48 27003ft 473kts
07-Jun-18 17:10 34.428929 -117.272641 49 26991ft 475kts
07-Jun-18 17:11 34.507045 -117.155034 49 26993ft 475kts
07-Jun-18 17:12 34.584659 -117.039839 48 26993ft 475kts
07-Jun-18 17:13 34.664953 -116.922718 48 26892ft 475kts
07-Jun-18 17:14 34.746994 -116.802622 48 26887ft 478kts
07-Jun-18 17:15 34.829975 -116.680704 48 25829ft 471kts
07-Jun-18 17:16 34.919826 -116.579905 35 24328ft 460kts
07-Jun-18 17:17 35.016849 -116.485952 35 23917ft 457kts
07-Jun-18 17:18 35.112689 -116.390749 42 23914ft 459kts
07-Jun-18 17:19 35.195654 -116.287352 43 23909ft 459kts
07-Jun-18 17:20 35.278662 -116.183053 43 21761ft 427kts
07-Jun-18 17:21 35.354737 -116.087148 43 19167ft 396kts
07-Jun-18 17:22 35.427866 -115.994756 43 17658ft 390kts
07-Jun-18 17:23 35.501092 -115.902040 43 16358ft 375kts
07-Jun-18 17:24 35.566743 -115.818650 43 15090ft 373kts
07-Jun-18 17:25 35.635428 -115.731161 44 13765ft 351kts
07-Jun-18 17:26 35.698927 -115.650039 44 13017ft 324kts
07-Jun-18 17:27 35.765971 -115.580740 12 13025ft 316kts
07-Jun-18 17:28 35.851406 -115.571479 0 12985ft 313kts
07-Jun-18 17:29 35.934663 -115.565827 3 12982ft 314kts
07-Jun-18 17:30 35.991188 -115.493804 66 12991ft 319kts
07-Jun-18 17:31 36.020909 -115.402805 67 12990ft 302kts
07-Jun-18 17:32 36.025957 -115.316545 95 12178ft 312kts
07-Jun-18 17:33 36.019233 -115.221142 95 9563ft 316kts
07-Jun-18 17:34 36.013448 -115.135896 95 8969ft 258kts
07-Jun-18 17:35 36.008495 -115.060074 95 7995ft 248kts
07-Jun-18 17:36 36.003922 -114.982285 95 7978ft 256kts
07-Jun-18 17:37 35.999058 -114.899657 98 7974ft 249kts
07-Jun-18 17:38 35.994240 -114.819169 99 7992ft 240kts
07-Jun-18 17:39 35.989093 -114.740151 98 7987ft 233kts
07-Jun-18 17:40 35.984279 -114.666113 98 7967ft 203kts
07-Jun-18 17:41 36.002043 -114.609945 24 8001ft 217kts
07-Jun-18 17:42 36.055059 -114.620216 299 8012ft 222kts
07-Jun-18 17:43 36.067708 -114.686485 271 7984ft 206kts
07-Jun-18 17:44 36.072136 -114.750917 266 7986ft 205kts
07-Jun-18 17:45 36.073026 -114.817881 266 7143ft 203kts
07-Jun-18 17:46 36.073329 -114.888060 267 5480ft 235kts
07-Jun-18 17:47 36.073582 -114.961843 266 4085ft 233kts
07-Jun-18 17:48 36.073657 -115.026156 267 3385ft 191kts
07-Jun-18 17:49 36.073672 -115.070047 267 2981ft 152kts
07-Jun-18 17:50 36.073661 -115.107912 268 2379ft 149kts
07-Jun-18 17:51 36.073639 -115.142608 269 2093ft 71kts
07-Jun-18 17:52 36.074560 -115.150181 298 2119ft 9kts
07-Jun-18 17:53 36.074638 -115.150354 299 2119ft 0kts
07-Jun-18 17:54 36.075040 -115.150992 315 2121ft 9kts
07-Jun-18 17:55 36.078068 -115.151635 91 2118ft 20kts
07-Jun-18 17:56 36.078672 -115.147195 343 2101ft 13kts
07-Jun-18 17:57 36.080301 -115.147295 60 2096ft 1kts

Navigation Log

Ident Type
Flight plan parsing failed, navigation log unavailable